createdAt,value
2023-02-21T00:02:04.510Z,8.81
2023-02-21T00:04:50.505Z,8.80
2023-02-21T00:07:37.584Z,8.79
2023-02-21T00:10:24.298Z,8.75
2023-02-21T00:13:10.534Z,8.75
2023-02-21T00:15:57.799Z,8.75
2023-02-21T00:18:43.603Z,8.74
2023-02-21T00:21:29.446Z,8.71
2023-02-21T00:24:15.409Z,8.67
2023-02-21T00:27:01.171Z,8.61
2023-02-21T00:29:47.260Z,8.61
2023-02-21T00:32:34.719Z,8.58
2023-02-21T00:35:20.642Z,8.57
2023-02-21T00:38:08.548Z,8.48
2023-02-21T00:40:54.510Z,8.41
2023-02-21T00:43:47.084Z,8.38
2023-02-21T00:46:32.884Z,8.30
2023-02-21T00:49:20.296Z,8.20
2023-02-21T00:52:06.152Z,8.15
2023-02-21T00:54:52.358Z,8.11
2023-02-21T00:57:40.611Z,8.04
2023-02-21T01:00:32.757Z,8.01
2023-02-21T01:03:18.712Z,7.96
2023-02-21T01:06:05.796Z,7.88
2023-02-21T01:08:51.746Z,7.84
2023-02-21T01:11:40.181Z,7.79
2023-02-21T01:14:28.430Z,7.73
2023-02-21T01:17:14.594Z,7.65
2023-02-21T01:20:00.701Z,7.64
2023-02-21T01:22:48.054Z,7.66
2023-02-21T01:25:34.480Z,7.66
2023-02-21T01:28:20.473Z,7.67
2023-02-21T01:31:06.285Z,7.60
2023-02-21T01:33:55.298Z,7.50
2023-02-21T01:36:41.351Z,7.40
2023-02-21T01:39:29.027Z,7.35
2023-02-21T01:42:15.046Z,7.32
2023-02-21T01:45:02.556Z,7.22
2023-02-21T01:47:49.394Z,7.21
2023-02-21T01:50:39.666Z,7.19
2023-02-21T01:53:30.454Z,7.18
2023-02-21T01:56:20.065Z,7.12
2023-02-21T01:59:09.665Z,7.00
2023-02-21T02:02:02.913Z,6.95
2023-02-21T02:04:50.918Z,6.93
2023-02-21T02:07:37.361Z,6.87
2023-02-21T02:10:25.859Z,6.78
2023-02-21T02:13:10.336Z,6.72
2023-02-21T02:15:50.523Z,6.66
2023-02-21T02:18:52.994Z,6.70
2023-02-21T02:21:59.172Z,6.74
2023-02-21T02:25:00.192Z,6.73
2023-02-21T02:28:00.157Z,6.71
2023-02-21T02:31:14.085Z,6.66
2023-02-21T02:34:15.703Z,6.68
2023-02-21T02:36:50.268Z,6.67
2023-02-21T02:39:28.813Z,6.68
2023-02-21T02:42:08.630Z,6.69
2023-02-21T02:44:41.104Z,6.70
2023-02-21T02:47:15.342Z,6.58
2023-02-21T02:49:45.544Z,6.49
2023-02-21T02:52:15.216Z,6.52
2023-02-21T02:54:43.578Z,6.54
2023-02-21T02:57:13.241Z,6.59
2023-02-21T02:59:46.666Z,6.65
2023-02-21T03:02:36.646Z,6.71
2023-02-21T03:05:17.348Z,6.75
2023-02-21T03:07:59.402Z,6.77
2023-02-21T03:10:39.802Z,6.82
2023-02-21T03:13:16.913Z,6.89
2023-02-21T03:15:50.836Z,6.92
2023-02-21T03:18:27.072Z,6.91
2023-02-21T03:20:58.990Z,6.89
2023-02-21T03:23:31.978Z,6.89
2023-02-21T03:26:03.952Z,6.88
2023-02-21T03:28:34.614Z,6.88
2023-02-21T03:31:05.968Z,6.90
2023-02-21T03:33:34.881Z,6.89
2023-02-21T03:36:05.812Z,6.87
2023-02-21T03:38:35.787Z,6.83
2023-02-21T03:41:04.183Z,6.80
2023-02-21T03:43:32.915Z,6.76
2023-02-21T03:46:01.359Z,6.76
2023-02-21T03:48:32.440Z,6.76
2023-02-21T03:51:01.154Z,6.73
2023-02-21T03:53:29.548Z,6.68
2023-02-21T03:55:59.315Z,6.60
2023-02-21T03:58:27.654Z,6.59
2023-02-21T04:00:56.029Z,6.59
2023-02-21T04:03:24.768Z,6.49
2023-02-21T04:05:53.260Z,6.45
2023-02-21T04:08:21.630Z,6.43
2023-02-21T04:10:52.548Z,6.40
2023-02-21T04:13:25.037Z,6.34
2023-02-21T04:15:53.421Z,6.30
2023-02-21T04:18:21.772Z,6.25
2023-02-21T04:20:50.875Z,6.24
2023-02-21T04:23:21.470Z,6.23
2023-02-21T04:25:49.986Z,6.20
2023-02-21T04:28:18.540Z,6.18
2023-02-21T04:30:48.382Z,6.14
2023-02-21T04:33:18.512Z,6.02
2023-02-21T04:35:48.809Z,5.92
2023-02-21T04:38:17.454Z,5.87
2023-02-21T04:40:45.979Z,5.80
2023-02-21T04:43:14.456Z,5.70
2023-02-21T04:45:42.877Z,5.67
2023-02-21T04:48:12.638Z,5.64
2023-02-21T04:50:40.935Z,5.58
2023-02-21T04:53:09.431Z,5.55
2023-02-21T04:55:37.971Z,5.49
2023-02-21T04:58:06.475Z,5.44
2023-02-21T05:00:34.957Z,5.43
2023-02-21T05:03:03.327Z,5.42
2023-02-21T05:05:33.228Z,5.41
2023-02-21T05:08:01.654Z,5.39
2023-02-21T05:10:44.666Z,5.38
2023-02-21T05:13:14.037Z,5.31
2023-02-21T05:15:42.387Z,5.23
2023-02-21T05:18:10.788Z,5.15
2023-02-21T05:20:40.481Z,5.05
2023-02-21T05:23:13.882Z,4.98
2023-02-21T05:25:44.332Z,4.88
2023-02-21T05:28:12.669Z,4.78
2023-02-21T05:30:41.505Z,4.75
2023-02-21T05:33:09.981Z,4.76
2023-02-21T05:35:38.346Z,4.75
2023-02-21T05:38:08.030Z,4.73
2023-02-21T05:40:36.408Z,4.73
2023-02-21T05:43:04.814Z,4.69
2023-02-21T05:45:33.118Z,4.61
2023-02-21T05:48:02.521Z,4.58
2023-02-21T05:50:31.879Z,4.58
2023-02-21T05:53:01.013Z,4.61
2023-02-21T05:55:30.671Z,4.62
2023-02-21T05:57:59.074Z,4.67
2023-02-21T06:00:29.675Z,4.72
2023-02-21T06:02:58.004Z,4.78
2023-02-21T06:05:26.603Z,4.81
2023-02-21T06:07:54.940Z,4.83
2023-02-21T06:10:23.253Z,4.85
2023-02-21T06:12:52.977Z,4.90
2023-02-21T06:15:21.275Z,4.95
2023-02-21T06:17:49.579Z,4.99
2023-02-21T06:20:17.968Z,5.06
2023-02-21T06:22:47.375Z,5.12
2023-02-21T06:25:16.283Z,5.17
2023-02-21T06:27:44.974Z,5.22
2023-02-21T06:30:15.442Z,5.28
2023-02-21T06:32:48.025Z,5.35
2023-02-21T06:35:16.544Z,5.41
2023-02-21T06:37:44.915Z,5.46
2023-02-21T06:40:13.862Z,5.50
2023-02-21T06:42:42.168Z,5.53
2023-02-21T06:45:10.588Z,5.56
2023-02-21T06:47:40.312Z,5.60
2023-02-21T06:50:10.498Z,5.64
2023-02-21T06:52:38.854Z,5.68
2023-02-21T06:55:08.669Z,5.72
2023-02-21T06:57:36.974Z,5.79
2023-02-21T07:00:06.813Z,5.82
2023-02-21T07:02:35.810Z,5.86
2023-02-21T07:05:06.061Z,5.89
2023-02-21T07:07:34.383Z,5.95
2023-02-21T07:10:02.720Z,6.03
2023-02-21T07:12:34.193Z,6.08
2023-02-21T07:15:02.573Z,6.15
2023-02-21T07:17:30.903Z,6.22
2023-02-21T07:19:59.331Z,6.29
2023-02-21T07:22:29.103Z,6.38
2023-02-21T07:24:57.634Z,6.44
2023-02-21T07:27:26.035Z,6.51
2023-02-21T07:29:54.386Z,6.60
2023-02-21T07:34:51.100Z,6.70
2023-02-21T07:37:19.448Z,6.78
2023-02-21T07:39:50.187Z,6.88
2023-02-21T07:42:18.560Z,6.97
2023-02-21T07:44:47.927Z,7.03
2023-02-21T07:47:16.907Z,7.09
2023-02-21T07:49:48.095Z,7.17
2023-02-21T07:52:16.537Z,7.25
2023-02-21T07:54:44.889Z,7.30
2023-02-21T07:57:14.622Z,7.38
2023-02-21T07:59:42.981Z,7.45
2023-02-21T08:02:12.796Z,7.54
2023-02-21T08:04:41.656Z,7.61
2023-02-21T08:07:10.414Z,7.67
2023-02-21T08:09:39.921Z,7.76
2023-02-21T08:12:08.266Z,7.82
2023-02-21T08:14:37.943Z,7.92
2023-02-21T08:17:06.296Z,8.01
2023-02-21T08:19:34.648Z,8.06
2023-02-21T08:22:08.117Z,8.09
2023-02-21T08:24:36.466Z,8.11
2023-02-21T08:27:04.923Z,8.12
2023-02-21T08:29:33.279Z,8.11
2023-02-21T08:32:03.106Z,8.14
2023-02-21T08:34:31.474Z,8.19
2023-02-21T08:36:59.812Z,8.26
2023-02-21T08:39:30.106Z,8.34
2023-02-21T08:41:58.454Z,8.45
2023-02-21T08:44:26.795Z,8.54
2023-02-21T08:46:55.232Z,8.64
2023-02-21T08:49:24.954Z,8.73
2023-02-21T08:51:55.059Z,8.83
2023-02-21T08:54:23.394Z,8.91
2023-02-21T08:56:52.091Z,8.98
2023-02-21T08:59:20.574Z,9.06
2023-02-21T09:01:49.162Z,9.18
2023-02-21T09:04:21.181Z,9.32
2023-02-21T09:06:56.530Z,9.47
2023-02-21T09:09:25.123Z,9.62
2023-02-21T09:11:53.510Z,9.72
2023-02-21T09:14:21.864Z,9.83
2023-02-21T09:16:50.222Z,9.94
2023-02-21T09:19:18.654Z,10.02
2023-02-21T09:21:49.538Z,10.12
2023-02-21T09:24:19.326Z,10.21
2023-02-21T09:26:49.557Z,10.30
2023-02-21T09:29:19.471Z,10.38
2023-02-21T09:31:47.901Z,10.44
2023-02-21T09:34:19.603Z,10.50
2023-02-21T09:36:57.943Z,10.55
2023-02-21T09:39:27.707Z,10.55
2023-02-21T09:41:57.660Z,10.56
2023-02-21T09:44:28.927Z,10.64
2023-02-21T09:47:01.110Z,10.72
2023-02-21T09:49:32.906Z,10.79
2023-02-21T09:52:02.357Z,10.88
2023-02-21T09:54:35.149Z,10.99
2023-02-21T09:57:06.784Z,11.11
2023-02-21T09:59:35.235Z,11.21
2023-02-21T10:02:19.710Z,11.34
2023-02-21T10:05:00.785Z,11.48
2023-02-21T10:07:41.812Z,11.61
2023-02-21T10:10:18.019Z,11.71
2023-02-21T10:12:51.505Z,11.81
2023-02-21T10:15:36.199Z,11.90
2023-02-21T10:18:19.253Z,11.95
2023-02-21T10:20:54.703Z,12.01
2023-02-21T10:23:28.869Z,12.09
2023-02-21T10:26:07.309Z,12.15
2023-02-21T10:28:35.918Z,12.24
2023-02-21T10:31:09.928Z,12.31
2023-02-21T10:33:40.436Z,12.40
2023-02-21T10:36:18.423Z,12.49
2023-02-21T10:38:54.928Z,12.57
2023-02-21T10:41:26.408Z,12.63
2023-02-21T10:43:58.383Z,12.67
2023-02-21T10:46:31.195Z,12.72
2023-02-21T10:49:18.388Z,12.75
2023-02-21T10:51:49.170Z,12.83
2023-02-21T10:54:23.101Z,12.90
2023-02-21T10:56:54.580Z,12.98
2023-02-21T10:59:27.580Z,13.08
2023-02-21T11:01:57.667Z,13.18
2023-02-21T11:04:29.515Z,13.29
2023-02-21T11:07:01.527Z,13.36
2023-02-21T11:09:37.164Z,13.46
2023-02-21T11:12:19.014Z,13.53
2023-02-21T11:15:09.116Z,13.59
2023-02-21T11:17:43.910Z,13.66
2023-02-21T11:20:24.646Z,13.74
2023-02-21T11:22:53.161Z,13.75
2023-02-21T11:25:25.204Z,13.79
2023-02-21T11:28:05.474Z,13.82
2023-02-21T11:30:36.707Z,13.89
2023-02-21T11:33:06.781Z,13.99
2023-02-21T11:35:38.717Z,14.06
2023-02-21T11:38:10.030Z,14.12
2023-02-21T11:40:45.076Z,14.19
2023-02-21T11:43:21.149Z,14.27
2023-02-21T11:46:10.079Z,14.36
2023-02-21T11:48:45.952Z,14.43
2023-02-21T11:51:28.456Z,14.53
2023-02-21T11:53:56.830Z,14.62
2023-02-21T11:56:38.495Z,14.64
2023-02-21T11:59:21.151Z,14.74
2023-02-21T12:02:02.560Z,14.83
2023-02-21T12:04:46.489Z,14.97
2023-02-21T12:07:24.666Z,15.07
2023-02-21T12:09:59.355Z,15.20
2023-02-21T12:12:38.370Z,15.29
2023-02-21T12:15:19.153Z,15.40
2023-02-21T12:17:59.483Z,15.49
2023-02-21T12:20:52.642Z,15.61
2023-02-21T12:23:29.438Z,15.68
2023-02-21T12:26:17.532Z,15.73
2023-02-21T12:29:00.614Z,15.79
2023-02-21T12:31:46.508Z,15.89
2023-02-21T12:34:30.694Z,15.94
2023-02-21T12:37:09.177Z,16.02
2023-02-21T12:39:56.590Z,16.12
2023-02-21T12:42:48.813Z,16.25
2023-02-21T12:45:37.164Z,16.38
2023-02-21T12:48:13.539Z,16.46
2023-02-21T12:50:44.903Z,16.50
2023-02-21T12:53:17.582Z,16.59
2023-02-21T12:55:49.807Z,16.62
2023-02-21T12:58:25.116Z,16.69
2023-02-21T13:00:58.423Z,16.78
2023-02-21T13:03:43.416Z,16.84
2023-02-21T13:06:18.091Z,16.88
2023-02-21T13:08:57.540Z,16.99
2023-02-21T13:11:33.005Z,17.09
2023-02-21T13:14:03.059Z,17.19
2023-02-21T13:16:32.768Z,17.27
2023-02-21T13:19:05.790Z,17.31
2023-02-21T13:21:50.737Z,17.34
2023-02-21T13:24:30.879Z,17.38
2023-02-21T13:27:33.545Z,17.44
2023-02-21T13:30:12.633Z,17.55
2023-02-21T13:32:51.936Z,17.60
2023-02-21T13:35:30.021Z,17.62
2023-02-21T13:38:00.496Z,17.63
2023-02-21T13:40:36.655Z,17.63
2023-02-21T13:43:14.066Z,17.69
2023-02-21T13:45:42.567Z,17.78
2023-02-21T13:48:23.689Z,17.90
2023-02-21T13:50:54.853Z,17.97
2023-02-21T13:53:25.221Z,17.99
2023-02-21T13:56:43.995Z,18.05
2023-02-21T13:59:34.193Z,18.08
2023-02-21T14:02:22.767Z,18.10
2023-02-21T14:05:04.089Z,18.18
2023-02-21T14:08:01.800Z,18.22
2023-02-21T14:10:43.059Z,18.29
2023-02-21T14:13:24.752Z,18.30
2023-02-21T14:16:09.769Z,18.33
2023-02-21T14:18:44.166Z,18.36
2023-02-21T14:21:17.693Z,18.38
2023-02-21T14:23:55.867Z,18.39
2023-02-21T14:26:47.961Z,18.40
2023-02-21T14:29:34.448Z,18.40
2023-02-21T14:32:26.465Z,18.48
2023-02-21T14:34:58.065Z,18.48
2023-02-21T14:37:34.068Z,18.51
2023-02-21T14:40:22.009Z,18.56
2023-02-21T14:43:03.220Z,18.60
2023-02-21T14:45:45.679Z,18.61
2023-02-21T14:49:01.438Z,18.62
2023-02-21T14:51:50.677Z,18.64
2023-02-21T14:55:08.076Z,18.69
2023-02-21T14:58:07.515Z,18.74
2023-02-21T15:00:47.955Z,18.78
2023-02-21T15:03:21.740Z,18.88
2023-02-21T15:06:03.589Z,18.96
2023-02-21T15:08:42.196Z,19.00
2023-02-21T15:11:26.330Z,18.91
2023-02-21T15:14:23.761Z,18.72
2023-02-21T15:16:55.591Z,18.54
2023-02-21T15:19:29.155Z,18.39
2023-02-21T15:22:19.979Z,18.24
2023-02-21T15:25:17.804Z,18.08
2023-02-21T15:28:01.658Z,17.98
2023-02-21T15:30:35.079Z,17.90
2023-02-21T15:33:16.105Z,17.81
2023-02-21T15:35:49.788Z,17.74
2023-02-21T15:38:23.143Z,17.65
2023-02-21T15:40:57.158Z,17.58
2023-02-21T15:43:34.496Z,17.52
2023-02-21T15:46:06.441Z,17.43
2023-02-21T15:48:35.859Z,17.37
2023-02-21T15:51:08.126Z,17.29
2023-02-21T15:53:36.487Z,17.22
2023-02-21T15:56:23.953Z,17.12
2023-02-21T15:59:12.735Z,17.04
2023-02-21T16:01:42.887Z,16.95
2023-02-21T16:04:19.641Z,16.87
2023-02-21T16:06:53.642Z,16.79
2023-02-21T16:09:25.679Z,16.71
2023-02-21T16:11:58.988Z,16.63
2023-02-21T16:14:39.772Z,16.52
2023-02-21T16:17:23.372Z,16.41
2023-02-21T16:19:56.122Z,16.32
2023-02-21T16:22:34.156Z,16.22
2023-02-21T16:25:14.010Z,16.12
2023-02-21T16:27:43.864Z,16.04
2023-02-21T16:30:15.327Z,15.95
2023-02-21T16:32:47.481Z,15.86
2023-02-21T16:35:20.716Z,15.76
2023-02-21T16:37:50.890Z,15.68
2023-02-21T16:40:23.730Z,15.59
2023-02-21T16:42:53.465Z,15.49
2023-02-21T16:45:22.638Z,15.41
2023-02-21T16:47:57.579Z,15.31
2023-02-21T16:50:30.905Z,15.16
2023-02-21T16:52:59.918Z,15.05
2023-02-21T16:55:28.892Z,14.93
2023-02-21T16:58:01.133Z,14.83
2023-02-21T17:00:29.879Z,14.73
2023-02-21T17:02:59.684Z,14.64
2023-02-21T17:05:28.107Z,14.56
2023-02-21T17:07:57.479Z,14.50
2023-02-21T17:10:25.982Z,14.37
2023-02-21T17:12:55.000Z,14.21
2023-02-21T17:15:23.899Z,13.98
2023-02-21T17:17:53.926Z,13.85
2023-02-21T17:20:24.449Z,13.77
2023-02-21T17:22:53.188Z,13.76
2023-02-21T17:25:22.946Z,13.71
2023-02-21T17:27:51.691Z,13.60
2023-02-21T17:30:23.325Z,13.49
2023-02-21T17:32:52.295Z,13.42
2023-02-21T17:35:24.639Z,13.39
2023-02-21T17:37:53.208Z,13.33
2023-02-21T17:40:22.706Z,13.29
2023-02-21T17:42:51.245Z,13.24
2023-02-21T17:45:20.756Z,13.15
2023-02-21T17:47:49.721Z,13.05
2023-02-21T17:50:19.103Z,12.94
2023-02-21T17:52:49.039Z,12.84
2023-02-21T17:55:20.128Z,12.75
2023-02-21T17:57:48.483Z,12.65
2023-02-21T18:00:21.773Z,12.56
2023-02-21T18:02:58.090Z,12.48
2023-02-21T18:05:26.439Z,12.47
2023-02-21T18:07:56.102Z,12.43
2023-02-21T18:10:26.487Z,12.48
2023-02-21T18:12:55.400Z,12.47
2023-02-21T18:15:25.178Z,12.41
2023-02-21T18:17:53.558Z,12.36
2023-02-21T18:20:22.209Z,12.35
2023-02-21T18:22:50.570Z,12.35
2023-02-21T18:25:21.496Z,12.31
2023-02-21T18:27:50.281Z,12.27
2023-02-21T18:30:19.433Z,12.17
2023-02-21T18:32:47.976Z,12.11
2023-02-21T18:35:17.569Z,12.00
2023-02-21T18:37:47.145Z,11.85
2023-02-21T18:40:16.673Z,11.66
2023-02-21T18:42:47.624Z,11.50
2023-02-21T18:45:15.963Z,11.32
2023-02-21T18:47:44.310Z,11.25
2023-02-21T18:50:12.782Z,11.19
2023-02-21T18:52:41.365Z,11.16
2023-02-21T18:55:09.876Z,11.10
2023-02-21T18:57:41.792Z,11.03
2023-02-21T19:00:15.254Z,10.99
2023-02-21T19:02:43.596Z,11.02
2023-02-21T19:05:17.209Z,11.05
2023-02-21T19:07:45.804Z,11.07
2023-02-21T19:10:17.597Z,11.07
2023-02-21T19:12:45.955Z,11.04
2023-02-21T19:15:16.652Z,10.98
2023-02-21T19:17:45.265Z,10.92
2023-02-21T19:20:13.866Z,10.84
2023-02-21T19:22:42.486Z,10.78
2023-02-21T19:25:10.996Z,10.73
2023-02-21T19:27:45.360Z,10.68
2023-02-21T19:30:19.448Z,10.66
2023-02-21T19:32:54.064Z,10.57
2023-02-21T19:35:22.406Z,10.52
2023-02-21T19:37:53.443Z,10.49
2023-02-21T19:40:22.124Z,10.45
2023-02-21T19:42:50.518Z,10.46
2023-02-21T19:45:20.950Z,10.46
2023-02-21T19:47:49.321Z,10.39
2023-02-21T19:50:18.412Z,10.32
2023-02-21T19:52:52.755Z,10.22
2023-02-21T19:55:21.660Z,10.21
2023-02-21T19:57:50.492Z,10.21
2023-02-21T20:00:20.683Z,10.18
2023-02-21T20:02:49.533Z,10.16
2023-02-21T20:05:18.773Z,10.10
2023-02-21T20:07:47.117Z,10.04
2023-02-21T20:10:18.005Z,9.97
2023-02-21T20:12:46.526Z,9.90
2023-02-21T20:15:15.833Z,9.94
2023-02-21T20:17:45.756Z,9.97
2023-02-21T20:20:14.164Z,9.94
2023-02-21T20:22:42.863Z,9.88
2023-02-21T20:25:11.320Z,9.84
2023-02-21T20:27:41.769Z,9.83
2023-02-21T20:30:11.721Z,9.82
2023-02-21T20:32:40.101Z,9.75
2023-02-21T20:35:12.590Z,9.72
2023-02-21T20:37:41.320Z,9.64
2023-02-21T20:40:11.208Z,9.61
2023-02-21T20:42:39.781Z,9.55
2023-02-21T20:45:10.487Z,9.55
2023-02-21T20:47:39.380Z,9.50
2023-02-21T20:50:08.773Z,9.45
2023-02-21T20:52:41.136Z,9.43
2023-02-21T20:55:10.239Z,9.43
2023-02-21T20:57:38.713Z,9.43
2023-02-21T21:00:10.447Z,9.43
2023-02-21T21:02:39.391Z,9.39
2023-02-21T21:05:13.797Z,9.35
2023-02-21T21:07:45.000Z,9.33
2023-02-21T21:10:15.749Z,9.30
2023-02-21T21:12:45.465Z,9.33
2023-02-21T21:15:14.514Z,9.32
2023-02-21T21:17:43.810Z,9.33
2023-02-21T21:20:14.386Z,9.32
2023-02-21T21:22:44.441Z,9.27
2023-02-21T21:25:13.262Z,9.26
2023-02-21T21:27:44.335Z,9.18
2023-02-21T21:30:18.217Z,9.12
2023-02-21T21:32:46.816Z,9.09
2023-02-21T21:35:17.652Z,9.05
2023-02-21T21:37:48.237Z,9.03
2023-02-21T21:40:17.408Z,9.00
2023-02-21T21:42:49.111Z,8.93
2023-02-21T21:45:19.640Z,8.90
2023-02-21T21:47:50.085Z,8.87
2023-02-21T21:50:20.445Z,8.87
2023-02-21T21:52:54.528Z,8.87
2023-02-21T21:55:25.582Z,8.83
2023-02-21T21:57:54.521Z,8.82
2023-02-21T22:00:25.201Z,8.79
2023-02-21T22:02:57.441Z,8.77
2023-02-21T22:05:26.420Z,8.77
2023-02-21T22:07:56.621Z,8.71
2023-02-21T22:10:26.348Z,8.57
2023-02-21T22:12:59.869Z,8.54
2023-02-21T22:15:29.768Z,8.50
2023-02-21T22:18:02.012Z,8.47
2023-02-21T22:20:31.859Z,8.44
2023-02-21T22:23:01.686Z,8.38
2023-02-21T22:25:32.084Z,8.37
2023-02-21T22:28:05.169Z,8.34
2023-02-21T22:30:33.475Z,8.34
2023-02-21T22:33:01.819Z,8.43
2023-02-21T22:35:30.483Z,8.45
2023-02-21T22:38:03.004Z,8.38
2023-02-21T22:40:35.610Z,8.40
2023-02-21T22:43:09.005Z,8.41
2023-02-21T22:45:38.436Z,8.38
2023-02-21T22:48:10.015Z,8.34
2023-02-21T22:50:39.477Z,8.29
2023-02-21T22:53:13.008Z,8.33
2023-02-21T22:55:41.459Z,8.40
2023-02-21T22:58:10.895Z,8.45
2023-02-21T23:00:39.329Z,8.51
2023-02-21T23:03:13.208Z,8.52
2023-02-21T23:05:43.633Z,8.52
2023-02-21T23:08:15.562Z,8.53
2023-02-21T23:10:44.369Z,8.56
2023-02-21T23:13:15.324Z,8.57
2023-02-21T23:15:45.084Z,8.58
2023-02-21T23:18:20.251Z,8.60
2023-02-21T23:20:52.549Z,8.60
2023-02-21T23:23:25.938Z,8.60
2023-02-21T23:25:56.443Z,8.60
2023-02-21T23:28:24.788Z,8.58
2023-02-21T23:30:53.324Z,8.58
2023-02-21T23:33:25.090Z,8.60
2023-02-21T23:35:55.277Z,8.61
2023-02-21T23:38:28.179Z,8.61
2023-02-21T23:40:59.001Z,8.65
2023-02-21T23:43:29.534Z,8.65
2023-02-21T23:45:58.732Z,8.69
2023-02-21T23:48:27.469Z,8.68
2023-02-21T23:50:58.299Z,8.68
2023-02-21T23:53:31.737Z,8.70
2023-02-21T23:56:00.785Z,8.67
2023-02-21T23:58:33.307Z,8.62
